Pagrindinis puslapis
METAR-TAF:

METAR-TAF

Oro uostai :

Kokola, Suomija

platuma: 63-43N, ilguma: 023-09E, Aukštis: 25 m

Dabartinis oras

Ataskaita buvo paskelbta 29 minutes, ne 15:50 UTC
Vėjas 3 kt iš Pietų
Temperatūra 0°C
Drėgmė 100%
Slėgis 981 hPa
Matomumas: 1300 m
Rūkas lopais

METAR: EFKK 071550Z AUTO 18003KT 1300 R19/1400D BCFG VV004 M00/M00 Q0981

Laikas: 18:19 (16:19 UTC)

Prognozė

Ataskaita buvo paskelbta 19 minutes, ne 16:00 UTC
Prognozė galioja nuo 07 metu 16 UTC su 07 metu 19 UTC
Vėjas 5 kt iš Pietų
Matomumas: 1500 m
Su prošvaistėmis ne aukštis 100 ft
rūkana
Laikinai
nuo 07 metu 16 UTC su 07 metu 19 UTC
Matomumas: 0500 m
ne aukštis 200 ft
įšaldymas rūko

TAF: EFKK 071600Z 0716/0719 18005KT 1500 BR BKN001 TEMPO 0716/0719 0500 FZFG VV002

Orai ataskaitas ir orų prognozės (METAR, TAF).

turimą stotys yra geltonos ir raudonos taškus žemėlapyje.

Perkelti pele per norėdami pamatyti stoties vardą.

Tada spustelėkite, norėdami matyti oro stebėjimo ir prognozės.

Norėdami pakeisti žemėlapį: spustelėkite ant žalios mygtukų su juodo kryžiaus žemyn,; žalią mygtuką su brūkšneliu, jei norite nutolinti; arba žalių rodyklių gretimoms žemėlapius.


METAR-TAF: